D/T METAR WX W/DIR W/SPE G/SPE TEMP DEWP
7/12/19 23:50 EGYM 072350Z AUTO 20021KT 9999 OVC012/// 10/08 Q1001 SSW (200°) 24.2mph 10°C 8°C
7/12/19 22:50 EGYM 072250Z AUTO 20018G28KT 9999 OVC011/// 09/07 Q1003 SSW (200°) 20.7mph 32.2mph 9°C 7°C
7/12/19 21:50 EGYM 072150Z AUTO 20018KT 9999 OVC014/// 09/07 Q1005 SSW (200°) 20.7mph 9°C 7°C
7/12/19 20:50 EGYM 072050Z AUTO 20017KT 9999 OVC015/// 09/06 Q1006 SSW (200°) 19.6mph 9°C 6°C
7/12/19 19:50 EGYM 071950Z AUTO 20015KT 9999 BKN016/// BKN060/// 09/06 Q1008 SSW (200°) 17.3mph 9°C 6°C
7/12/19 18:50 EGYM 071850Z AUTO 21011KT 9999 SCT020/// BKN060/// BKN090/// 08/06 Q1009 SSW (210°) 12.7mph 8°C 6°C
7/12/19 17:50 EGYM 071750Z AUTO 21013KT 9999 BKN050/// BKN090/// 09/06 Q1009 SSW (210°) 15.0mph 9°C 6°C
7/12/19 16:50 EGYM 071650Z AUTO 21011KT 9999 OVC060/// 09/07 Q1010 SSW (210°) 12.7mph 9°C 7°C
7/12/19 15:50 EGYM 071550Z AUTO 21010KT 9999 SCT027/// BKN070/// 09/06 Q1010 SSW (210°) 11.5mph 9°C 6°C
7/12/19 14:50 EGYM 071450Z AUTO 21011KT 9999 OVC027/// 09/06 Q1010 SSW (210°) 12.7mph 9°C 6°C
7/12/19 13:50 EGYM 071350Z AUTO 22013KT 9999 SCT028/// 09/06 Q1011 SW (220°) 15.0mph 9°C 6°C
7/12/19 12:50 EGYM 071250Z AUTO 23012KT 9999 BKN039/// 09/06 Q1011 SW (230°) 13.8mph 9°C 6°C
7/12/19 11:50 EGYM 071150Z AUTO 23012KT 9999 BKN038/// 09/07 Q1012 SW (230°) 13.8mph 9°C 7°C
7/12/19 10:50 EGYM 071050Z AUTO 24012KT 9999 BKN039/// 08/06 Q1012 WSW (240°) 13.8mph 8°C 6°C
7/12/19 09:50 EGYM 070950Z AUTO 24009KT 9999 FEW043/// 08/06 Q1012 WSW (240°) 10.4mph 8°C 6°C
7/12/19 08:50 EGYM 070850Z AUTO 23009KT 9999 OVC042/// 07/06 Q1012 SW (230°) 10.4mph 7°C 6°C
7/12/19 07:50 EGYM 070750Z AUTO 22011KT 9999 OVC042/// 07/06 Q1011 SW (220°) 12.7mph 7°C 6°C
7/12/19 06:50 EGYM 070650Z AUTO 22010KT 9999 OVC039/// 07/06 Q1010 SW (220°) 11.5mph 7°C 6°C
7/12/19 05:50 EGYM 070550Z AUTO 22008KT 9999 BKN039/// 07/06 Q1010 SW (220°) 9.2mph 7°C 6°C
7/12/19 04:50 EGYM 070450Z AUTO 19005KT 9999 SCT027/// BKN034/// 07/06 Q1009 S (190°) 5.8mph 7°C 6°C
7/12/19 03:50 EGYM 070350Z AUTO 23008KT 9999 SCT027/// BKN037/// 07/06 Q1009 SW (230°) 9.2mph 7°C 6°C
7/12/19 02:50 EGYM 070250Z AUTO 23007KT 9999 SCT023/// SCT027/// BKN038/// 07/06 Q1008 SW (230°) 8.1mph 7°C 6°C
7/12/19 01:50 EGYM 070150Z AUTO 24007KT 9999 SCT025/// BKN035/// 07/06 Q1008 WSW (240°) 8.1mph 7°C 6°C
7/12/19 00:50 EGYM 070050Z AUTO 23008KT 9999 NCD 06/05 Q1007 SW (230°) 9.2mph 6°C 5°C
6/12/19 23:50 EGYM 062350Z AUTO 21005KT 9999 NCD 06/05 Q1006 SSW (210°) 5.8mph 6°C 5°C
6/12/19 22:50 EGYM 062250Z AUTO 25012KT 9999 FEW037/// 07/06 Q1005 WSW (250°) 13.8mph 7°C 6°C
6/12/19 21:50 EGYM 062150Z AUTO 27011KT 9999 SCT036/// 08/06 Q1005 W (270°) 12.7mph 8°C 6°C
6/12/19 20:50 EGYM 062050Z AUTO 26013KT 9999 FEW031/// 08/06 Q1004 W (260°) 15.0mph 8°C 6°C
6/12/19 19:50 EGYM 061950Z AUTO 27015KT 9999 FEW042/// 08/07 Q1002 W (270°) 17.3mph 8°C 7°C
6/12/19 18:50 EGYM 061850Z AUTO 27015KT 9999 FEW044/// SCT080/// 08/07 Q1001 RERA W (270°) 17.3mph 8°C 7°C
6/12/19 17:50 EGYM 061750Z AUTO 24013KT 9999 -RA FEW027/// BKN050/// 09/08 Q1000 -RA WSW (240°) 15.0mph 9°C 8°C
6/12/19 16:50 EGYM 061650Z AUTO 26014KT 4700 RA FEW039/// BKN044/// 08/08 Q0999 RA W (260°) 16.1mph 8°C 8°C
6/12/19 15:50 EGYM 061550Z 23012KT 9999 -RA BKN020 11/09 Q0998 WHT -RA SW (230°) 13.8mph 11°C 9°C
6/12/19 14:50 EGYM 061450Z 24014KT 9999 VCSH FEW012 FEW018TCU SCT024 11/09 Q0998 RESHRA WHT VCSH WSW (240°) 16.1mph 11°C 9°C
6/12/19 13:50 EGYM 061350Z 23020KT 9999 BKN015 BKN045 12/10 Q0998 RESHRA TEMPO 4000 SHRA RMK WHT TEMPO GRN SW (230°) 23.0mph 12°C 10°C
6/12/19 13:20 EGYM 061320Z 23020KT 9999 BKN015 BKN050 12/10 Q0998 TEMPO 4000 SHRA RMK WHT TEMPO GRN SW (230°) 23.0mph 12°C 10°C
6/12/19 12:50 EGYM 061250Z 22020KT 9999 BKN010 12/10 Q0999 TEMPO 4000 SHRA RMK GRN GRN SW (220°) 23.0mph 12°C 10°C
6/12/19 12:20 EGYM 061220Z 23017KT 9999 BKN010 SCT140 12/11 Q0999 TEMPO 6000 -RA SCT006 RMK GRN TEMPO YLO1 SW (230°) 19.6mph 12°C 11°C
6/12/19 11:50 EGYM 061150Z 22019KT 9999 BKN012 OVC020 12/11 Q1000 TEMPO 6000 -RA SCT006 RMK GRN TEMPO YLO1 SW (220°) 21.9mph 12°C 11°C
6/12/19 11:20 EGYM 061120Z 23018KT 9999 BKN012 12/11 Q1000 NOSIG RMK GRN GRN SW (230°) 20.7mph 12°C 11°C
6/12/19 10:50 EGYM 061050Z 23019KT 9999 BKN010 12/11 Q1001 TEMPO 6000 -RA SCT006 RMK GRN TEMPO YLO1 SW (230°) 21.9mph 12°C 11°C
6/12/19 10:20 EGYM 061020Z 23019KT 9999 BKN010 12/10 Q1001 TEMPO 6000 -RA SCT006 RMK GRN TEMPO YLO1 SW (230°) 21.9mph 12°C 10°C
6/12/19 09:50 EGYM 060950Z 22018KT 9999 SCT006 BKN009 11/10 Q1001 RERA NOSIG RMK YLO1 YLO1 SW (220°) 20.7mph 11°C 10°C
6/12/19 09:20 EGYM 060920Z 21015KT 9999 -RA SCT006 BKN013 11/10 Q1001 NOSIG RMK YLO1 YLO1 -RA SSW (210°) 17.3mph 11°C 10°C
6/12/19 08:50 EGYM 060850Z 21016KT 6000 -RA SCT006 BKN013 BKN030 10/10 Q1002 NOSIG RMK YLO1 YLO1 -RA SSW (210°) 18.4mph 10°C 10°C
6/12/19 08:20 EGYM 060820Z 20016KT 9999 SCT006 BKN013 BKN030 10/10 Q1002 RERA NOSIG RMK YLO1 YLO1 SSW (200°) 18.4mph 10°C 10°C
6/12/19 07:50 EGYM 060750Z 20015KT 5000 -RA SCT006 BKN012 BKN030 10/10 Q1003 YLO1 NOSIG RMK YLO1 YLO1 -RA SSW (200°) 17.3mph 10°C 10°C
6/12/19 06:50 EGYM 060650Z 21017KT 7000 RA BKN007 10/10 Q1003 TEMPO 9000 -RA SCT007 RMK GRN GRN RA SSW (210°) 19.6mph 10°C 10°C